KBKD/BKD METAR and TAF weather

Enter ICAO airport designator
Station Type Date Time Source
KBKD METAR 2021/09/25 03:15 UTC NOAA

KBKD 250315Z AUTO 14003KT 7SM CLR 20/07 A3005 RMK AO2 T02000067


Station Type Date Time Source
KBKD Decoded METAR 2021/09/25 03:15 UTC NOAA

Station name not available
Sep 24, 2021 - 11:15 PM EDT / 2021.09.25 0315 UTC
Wind: from the SE (140 degrees) at 3 MPH (3 KT):0
Visibility: 7 mile(s):0
Sky conditions: clear
Temperature: 68.0 F (20.0 C)
Dew Point: 44.1 F (6.7 C)
Relative Humidity: 41%
Pressure (altimeter): 30.05 in. Hg (1017 hPa)
ob: KBKD 250315Z AUTO 14003KT 7SM CLR 20/07 A3005 RMK AO2 T02000067
cycle: 3

Station Type Date Time Source
KBKD TAF UTC NOAA

Error!

Example: see airport list